South Ashburnham, Massachusetts
Current Conditions -  °F | °C
As of 3:52 AM on Wednesday 22 Oct 2014 (Local Time) from KAFN Reporting Station
Overcast Overcast  
Wind Chill: 45°   Ceiling: 300
Heat Index: 47°   Visibility: 7mi
Dew Point: 45°   Wind: 5mph
Humidity: 93%   Direction: NA
Pressure: 30.01"   Gusts: NA
Location:  42.659°N, 71.9245°W
Report Text: KAFN 220752Z AUTO VRB04KT 7SM OVC003 08/07 A3001 RMK AO2 SLP170 T00830072
Loading
Personal Weather Stations






























Interactive Weather Map
Tropical Storm Tracking
New forecast layout! Learn more

10-Day Weather Forecast

Advertisements
Track Severe Weather on mobile